Time;durP1;ratioP1;P1;durP2;ratioP2;P2;SDS_P1;SDS_P2;PMS_P1;PMS_P2;Temp;Humidity;BMP_temperature;BMP_pressure;BME280_temperature;BME280_humidity;BME280_pressure;Samples;Min_cycle;Max_cycle;Signal;HPM_P1;HPM_P2
2022/03/26 00:02:23;;;;;;;37.75;17.25;;;;;;;;;;5053701;28;20451;-74
2022/03/26 00:04:49;;;;;;;39.88;18.25;;;;;;;;;;5035596;28;20020;-74
2022/03/26 00:07:15;;;;;;;40.30;17.13;;;;;;;;;;5053622;28;20463;-74
2022/03/26 00:09:41;;;;;;;43.08;19.13;;;;;;;;;;5053661;28;20028;-74
2022/03/26 00:12:08;;;;;;;38.35;18.58;;;;;;;;;;5053516;28;20781;-74
2022/03/26 00:14:34;;;;;;;41.97;17.85;;;;;;;;;;5035477;28;20033;-74
2022/03/26 00:17:00;;;;;;;38.67;17.40;;;;;;;;;;5053040;28;20039;-74
2022/03/26 00:19:27;;;;;;;43.78;18.65;;;;;;;;;;5053143;28;20114;-74
2022/03/26 00:21:53;;;;;;;40.10;18.13;;;;;;;;;;5053186;28;20554;-74
2022/03/26 00:24:19;;;;;;;37.03;18.20;;;;;;;;;;5053531;28;20037;-74
2022/03/26 00:26:46;;;;;;;43.50;17.83;;;;;;;;;;5053086;28;20144;-74
2022/03/26 00:29:12;;;;;;;36.80;18.27;;;;;;;;;;5053332;28;20021;-74
2022/03/26 00:31:38;;;;;;;40.72;18.15;;;;;;;;;;5053123;28;20017;-74
2022/03/26 00:34:06;;;;;;;42.33;19.40;;;;;;;;;;5053052;28;20535;-74
2022/03/26 00:36:32;;;;;;;37.55;18.38;;;;;;;;;;5035072;28;20033;-74
2022/03/26 00:38:58;;;;;;;38.53;17.88;;;;;;;;;;5052966;28;20056;-74
2022/03/26 00:41:24;;;;;;;45.90;17.55;;;;;;;;;;5041816;28;20041;-74
2022/03/26 00:43:51;;;;;;;45.08;17.92;;;;;;;;;;5033016;28;20543;-74
2022/03/26 00:46:17;;;;;;;46.28;19.05;;;;;;;;;;5033063;28;20017;-74
2022/03/26 00:48:43;;;;;;;57.90;19.50;;;;;;;;;;5032939;28;20022;-74
2022/03/26 00:51:09;;;;;;;40.53;18.88;;;;;;;;;;5032838;28;20021;-74
2022/03/26 00:53:36;;;;;;;38.63;18.45;;;;;;;;;;5032839;28;20037;-74
2022/03/26 00:56:02;;;;;;;41.25;18.42;;;;;;;;;;5032597;28;20030;-74
2022/03/26 00:58:28;;;;;;;43.92;18.73;;;;;;;;;;5032725;28;20037;-74
2022/03/26 01:00:54;;;;;;;41.25;18.05;;;;;;;;;;5032785;28;20029;-74
2022/03/26 01:03:20;;;;;;;59.97;19.77;;;;;;;;;;5032653;28;20018;-74
2022/03/26 01:05:46;;;;;;;47.17;19.52;;;;;;;;;;5032535;28;20051;-74
2022/03/26 01:08:12;;;;;;;54.20;19.13;;;;;;;;;;5032656;28;20049;-74
2022/03/26 01:10:38;;;;;;;43.67;18.38;;;;;;;;;;5032298;28;20021;-74
2022/03/26 01:13:04;;;;;;;48.63;19.48;;;;;;;;;;5038164;28;20033;-74
2022/03/26 01:15:30;;;;;;;41.60;19.05;;;;;;;;;;5052268;28;20422;-74
2022/03/26 01:17:56;;;;;;;44.22;19.25;;;;;;;;;;5052342;28;20029;-74
2022/03/26 01:20:23;;;;;;;37.85;18.95;;;;;;;;;;5052240;28;20108;-74
2022/03/26 01:22:49;;;;;;;47.58;18.40;;;;;;;;;;5051928;28;20032;-74
2022/03/26 01:25:15;;;;;;;44.13;18.77;;;;;;;;;;5052067;28;20108;-74
2022/03/26 01:27:41;;;;;;;42.08;17.52;;;;;;;;;;5052016;28;20052;-74
2022/03/26 01:30:07;;;;;;;45.75;18.42;;;;;;;;;;5051196;28;20476;-74
2022/03/26 01:32:33;;;;;;;39.72;17.83;;;;;;;;;;5051989;28;20407;-74
2022/03/26 01:34:59;;;;;;;50.95;16.92;;;;;;;;;;5052069;28;20024;-74
2022/03/26 01:37:25;;;;;;;40.75;17.15;;;;;;;;;;5051884;28;20067;-74
2022/03/26 01:39:52;;;;;;;38.70;16.98;;;;;;;;;;5051650;28;20104;-74
2022/03/26 01:42:18;;;;;;;39.90;17.77;;;;;;;;;;5033386;28;20105;-74
2022/03/26 01:44:44;;;;;;;41.50;16.60;;;;;;;;;;5031948;28;20029;-74
2022/03/26 01:47:10;;;;;;;40.15;17.17;;;;;;;;;;5031923;28;20064;-74
2022/03/26 01:49:37;;;;;;;47.95;18.13;;;;;;;;;;5031800;28;20030;-74
2022/03/26 01:52:04;;;;;;;43.47;17.77;;;;;;;;;;5031744;28;20028;-74
2022/03/26 01:54:30;;;;;;;37.08;17.38;;;;;;;;;;5031880;28;20456;-74
2022/03/26 01:56:57;;;;;;;39.20;16.80;;;;;;;;;;5031608;28;20049;-74
2022/03/26 01:59:27;;;;;;;40.70;16.67;;;;;;;;;;5031682;28;20026;-74
2022/03/26 02:01:53;;;;;;;36.97;16.55;;;;;;;;;;5031692;28;20025;-74
2022/03/26 02:04:19;;;;;;;42.30;16.83;;;;;;;;;;5031702;28;20030;-74
2022/03/26 02:06:46;;;;;;;46.80;17.48;;;;;;;;;;5031765;28;20541;-74
2022/03/26 02:09:12;;;;;;;38.17;16.83;;;;;;;;;;5031649;28;20072;-74
2022/03/26 02:11:39;;;;;;;37.40;17.33;;;;;;;;;;5031401;28;20029;-74
2022/03/26 02:14:08;;;;;;;37.25;16.70;;;;;;;;;;5045557;28;20037;-74
2022/03/26 02:16:34;;;;;;;38.47;17.70;;;;;;;;;;5051449;28;20476;-74
2022/03/26 02:19:01;;;;;;;38.10;15.68;;;;;;;;;;5051419;28;20037;-74
2022/03/26 02:21:27;;;;;;;37.65;16.02;;;;;;;;;;5051432;28;20033;-74
2022/03/26 02:23:53;;;;;;;37.72;15.95;;;;;;;;;;5051406;28;20396;-74
2022/03/26 02:26:21;;;;;;;36.45;16.48;;;;;;;;;;5051286;28;20029;-74
2022/03/26 02:28:49;;;;;;;37.78;17.40;;;;;;;;;;5051343;28;20045;-74
2022/03/26 02:31:16;;;;;;;38.78;17.08;;;;;;;;;;5033373;28;20057;-74
2022/03/26 02:33:42;;;;;;;41.50;16.60;;;;;;;;;;5051276;28;20029;-74
2022/03/26 02:36:09;;;;;;;33.78;15.95;;;;;;;;;;5051261;28;20021;-74
2022/03/26 02:38:35;;;;;;;44.47;17.15;;;;;;;;;;5051352;28;20033;-74
2022/03/26 02:41:01;;;;;;;42.42;17.30;;;;;;;;;;5053178;28;20052;-74
2022/03/26 02:43:28;;;;;;;40.65;15.73;;;;;;;;;;5055218;28;20032;-74
2022/03/26 02:45:54;;;;;;;38.03;17.05;;;;;;;;;;5053737;28;20422;-74
2022/03/26 02:48:20;;;;;;;39.20;16.05;;;;;;;;;;5055157;28;20420;-74
2022/03/26 02:50:46;;;;;;;40.13;18.23;;;;;;;;;;5055080;28;20471;-74
2022/03/26 02:53:13;;;;;;;42.88;17.55;;;;;;;;;;5055031;28;20032;-74
2022/03/26 02:55:39;;;;;;;39.30;17.90;;;;;;;;;;5054926;28;20063;-74
2022/03/26 02:58:06;;;;;;;46.22;18.50;;;;;;;;;;5055068;28;20028;-74
2022/03/26 03:00:33;;;;;;;41.03;17.80;;;;;;;;;;5054901;28;20067;-74
2022/03/26 03:02:59;;;;;;;42.08;18.25;;;;;;;;;;5054859;28;20025;-74
2022/03/26 03:05:25;;;;;;;40.90;17.77;;;;;;;;;;5054754;28;20029;-74
2022/03/26 03:07:51;;;;;;;41.22;19.20;;;;;;;;;;5054717;28;20025;-74
2022/03/26 03:10:17;;;;;;;42.13;18.77;;;;;;;;;;5054761;28;20414;-74
2022/03/26 03:12:44;;;;;;;43.30;17.88;;;;;;;;;;5054548;28;20028;-74
2022/03/26 03:15:10;;;;;;;40.20;18.80;;;;;;;;;;5054690;28;20078;-74
2022/03/26 03:17:37;;;;;;;52.13;20.27;;;;;;;;;;5054632;28;20115;-74
2022/03/26 03:20:03;;;;;;;44.25;18.30;;;;;;;;;;5053209;28;20108;-74
2022/03/26 03:22:29;;;;;;;48.17;18.75;;;;;;;;;;5054432;28;20131;-74
2022/03/26 03:24:55;;;;;;;45.78;18.70;;;;;;;;;;5054269;28;20477;-74
2022/03/26 03:27:21;;;;;;;47.60;19.25;;;;;;;;;;5054227;28;20021;-74
2022/03/26 03:29:48;;;;;;;47.80;18.77;;;;;;;;;;5054355;28;20024;-74
2022/03/26 03:32:14;;;;;;;43.25;18.52;;;;;;;;;;5054427;28;20509;-74
2022/03/26 03:34:40;;;;;;;49.72;19.58;;;;;;;;;;5054297;28;20025;-74
2022/03/26 03:37:06;;;;;;;51.80;19.13;;;;;;;;;;5054197;28;20028;-74
2022/03/26 03:39:33;;;;;;;43.78;18.38;;;;;;;;;;5054109;28;20070;-74
2022/03/26 03:41:59;;;;;;;44.60;18.52;;;;;;;;;;5053801;28;20048;-74
2022/03/26 03:44:25;;;;;;;47.85;18.95;;;;;;;;;;5053990;28;20021;-74
2022/03/26 03:46:51;;;;;;;49.42;19.58;;;;;;;;;;5054109;28;20041;-74
2022/03/26 03:49:17;;;;;;;47.95;19.92;;;;;;;;;;5054035;28;20025;-74
2022/03/26 03:51:43;;;;;;;49.20;21.13;;;;;;;;;;5053107;28;20472;-74
2022/03/26 03:54:09;;;;;;;42.83;19.02;;;;;;;;;;5053849;28;20120;-74
2022/03/26 03:56:36;;;;;;;48.72;20.50;;;;;;;;;;5054050;28;20033;-74
2022/03/26 03:59:02;;;;;;;46.85;19.95;;;;;;;;;;5053950;28;20599;-74
2022/03/26 04:01:28;;;;;;;47.28;20.27;;;;;;;;;;5053845;28;20032;-74
2022/03/26 04:03:54;;;;;;;44.58;18.75;;;;;;;;;;5053594;28;20025;-74
2022/03/26 04:06:20;;;;;;;44.97;20.02;;;;;;;;;;5053655;28;20025;-74
2022/03/26 04:08:46;;;;;;;46.17;18.73;;;;;;;;;;5053573;28;20037;-74
2022/03/26 04:11:12;;;;;;;43.65;19.30;;;;;;;;;;5053439;28;20116;-74
2022/03/26 04:13:38;;;;;;;48.85;20.70;;;;;;;;;;5053445;28;20442;-74
2022/03/26 04:16:05;;;;;;;48.65;20.20;;;;;;;;;;5053567;28;20025;-74
2022/03/26 04:18:31;;;;;;;51.35;21.60;;;;;;;;;;5053536;28;20036;-74
2022/03/26 04:20:57;;;;;;;52.67;21.00;;;;;;;;;;5053396;28;20060;-74
2022/03/26 04:23:24;;;;;;;54.25;22.40;;;;;;;;;;5053344;28;20049;-74
2022/03/26 04:25:50;;;;;;;57.83;22.73;;;;;;;;;;5053157;28;20024;-74
2022/03/26 04:28:16;;;;;;;51.63;22.73;;;;;;;;;;5053371;28;20037;-74
2022/03/26 04:30:43;;;;;;;49.80;22.00;;;;;;;;;;5035163;28;20456;-74
2022/03/26 04:33:09;;;;;;;52.15;22.75;;;;;;;;;;5053178;28;20052;-74
2022/03/26 04:35:35;;;;;;;55.28;23.63;;;;;;;;;;5053131;28;20048;-74
2022/03/26 04:38:02;;;;;;;62.10;23.60;;;;;;;;;;5053106;28;20040;-74
2022/03/26 04:40:28;;;;;;;60.50;24.80;;;;;;;;;;5052799;28;20051;-74
2022/03/26 04:42:55;;;;;;;60.15;24.90;;;;;;;;;;5052860;28;20028;-74
2022/03/26 04:45:21;;;;;;;63.10;23.95;;;;;;;;;;5052815;28;20029;-74
2022/03/26 04:47:47;;;;;;;59.60;24.85;;;;;;;;;;5052982;28;20033;-74
2022/03/26 04:50:13;;;;;;;52.90;23.95;;;;;;;;;;5034824;28;20116;-74
2022/03/26 04:52:39;;;;;;;56.33;24.48;;;;;;;;;;5052739;28;20100;-74
2022/03/26 04:55:08;;;;;;;54.17;23.63;;;;;;;;;;5034811;28;20060;-74
2022/03/26 04:57:38;;;;;;;62.85;25.65;;;;;;;;;;5034634;28;20021;-74
2022/03/26 05:00:05;;;;;;;58.90;24.35;;;;;;;;;;5052683;28;20029;-74
2022/03/26 05:02:31;;;;;;;56.78;23.60;;;;;;;;;;5034660;28;20036;-74
2022/03/26 05:04:57;;;;;;;62.00;25.30;;;;;;;;;;5052462;28;20103;-74
2022/03/26 05:10:08;;;;;;;64.47;23.85;;;;;;;;;;5052465;28;20122;-74
2022/03/26 05:12:34;;;;;;;68.55;25.65;;;;;;;;;;5052307;28;20036;-74
2022/03/26 05:15:00;;;;;;;57.15;24.52;;;;;;;;;;5052384;28;20080;-74
2022/03/26 05:17:26;;;;;;;60.90;24.77;;;;;;;;;;5052280;28;20092;-74
2022/03/26 05:19:52;;;;;;;63.42;24.30;;;;;;;;;;5052284;28;20017;-74
2022/03/26 05:22:18;;;;;;;65.80;25.50;;;;;;;;;;5052002;28;20107;-74
2022/03/26 05:24:45;;;;;;;58.90;24.90;;;;;;;;;;5052450;28;20509;-74
2022/03/26 05:27:11;;;;;;;61.00;24.20;;;;;;;;;;5051863;28;20021;-74
2022/03/26 05:29:37;;;;;;;53.92;24.70;;;;;;;;;;5051949;28;20031;-74
2022/03/26 05:32:04;;;;;;;65.35;24.13;;;;;;;;;;5051961;28;20021;-74
2022/03/26 05:34:30;;;;;;;62.30;24.10;;;;;;;;;;5051887;28;20029;-74
2022/03/26 05:36:56;;;;;;;59.08;24.40;;;;;;;;;;5051865;28;20555;-74
2022/03/26 05:39:22;;;;;;;61.95;25.23;;;;;;;;;;5051939;28;20126;-74
2022/03/26 05:41:48;;;;;;;61.60;24.98;;;;;;;;;;5051398;28;20070;-74
2022/03/26 05:44:14;;;;;;;62.83;22.67;;;;;;;;;;5051683;28;20548;-74
2022/03/26 05:46:40;;;;;;;56.08;25.23;;;;;;;;;;5051864;28;20387;-75
2022/03/26 05:49:06;;;;;;;57.92;25.00;;;;;;;;;;5051603;28;20029;-74
2022/03/26 05:51:32;;;;;;;57.42;24.00;;;;;;;;;;5051662;28;20036;-74
2022/03/26 05:53:58;;;;;;;64.07;24.30;;;;;;;;;;5051748;28;20425;-74
2022/03/26 05:56:24;;;;;;;62.83;25.30;;;;;;;;;;5051448;28;20025;-74
2022/03/26 05:58:51;;;;;;;63.08;26.25;;;;;;;;;;5051763;28;20108;-74
2022/03/26 06:01:17;;;;;;;64.05;25.88;;;;;;;;;;5051617;28;20021;-74
2022/03/26 06:03:43;;;;;;;53.70;25.10;;;;;;;;;;5051402;28;20052;-74
2022/03/26 06:06:09;;;;;;;55.10;23.58;;;;;;;;;;5051500;28;20036;-74
2022/03/26 06:08:35;;;;;;;55.42;24.40;;;;;;;;;;5051576;28;20079;-74
2022/03/26 06:11:01;;;;;;;57.90;25.10;;;;;;;;;;5051412;28;20017;-74
2022/03/26 06:13:27;;;;;;;58.70;25.20;;;;;;;;;;5050110;28;20051;-74
2022/03/26 06:15:53;;;;;;;62.88;24.25;;;;;;;;;;5050887;28;20033;-74
2022/03/26 06:18:19;;;;;;;54.00;23.95;;;;;;;;;;5051618;28;20474;-74
2022/03/26 06:20:45;;;;;;;59.28;24.63;;;;;;;;;;5051209;28;20047;-74
2022/03/26 06:23:11;;;;;;;58.10;24.88;;;;;;;;;;5051185;28;20036;-74
2022/03/26 06:25:38;;;;;;;60.53;25.15;;;;;;;;;;5051243;28;20025;-74
2022/03/26 06:28:04;;;;;;;56.65;25.55;;;;;;;;;;5051245;28;20029;-74
2022/03/26 06:30:30;;;;;;;57.15;24.20;;;;;;;;;;5051424;28;20107;-74
2022/03/26 06:32:56;;;;;;;63.03;25.48;;;;;;;;;;5051374;28;20098;-74
2022/03/26 06:35:22;;;;;;;64.55;26.10;;;;;;;;;;5049902;28;20052;-75
2022/03/26 06:37:48;;;;;;;62.42;26.38;;;;;;;;;;5051265;28;20108;-74
2022/03/26 06:40:14;;;;;;;60.75;25.38;;;;;;;;;;5049729;28;20124;-74
2022/03/26 06:42:41;;;;;;;63.15;25.55;;;;;;;;;;5031197;28;20168;-74
2022/03/26 06:45:07;;;;;;;65.00;26.33;;;;;;;;;;5031320;28;20480;-74
2022/03/26 06:47:33;;;;;;;64.72;25.40;;;;;;;;;;5031205;28;20022;-74
2022/03/26 06:49:59;;;;;;;53.65;24.27;;;;;;;;;;5031307;28;20022;-74
2022/03/26 06:52:25;;;;;;;59.67;24.92;;;;;;;;;;5031127;28;20041;-74
2022/03/26 06:54:52;;;;;;;65.47;25.70;;;;;;;;;;5031173;28;20325;-74
2022/03/26 06:57:18;;;;;;;52.65;25.05;;;;;;;;;;5031180;28;20021;-74
2022/03/26 06:59:44;;;;;;;57.80;25.85;;;;;;;;;;5030946;28;20462;-74
2022/03/26 07:02:11;;;;;;;53.72;27.00;;;;;;;;;;5031104;28;20048;-74
2022/03/26 07:04:37;;;;;;;53.78;26.50;;;;;;;;;;5031126;28;20018;-74
2022/03/26 07:07:05;;;;;;;51.05;24.67;;;;;;;;;;5030988;28;20048;-74
2022/03/26 07:09:31;;;;;;;54.83;26.20;;;;;;;;;;5031159;28;20029;-74
2022/03/26 07:11:57;;;;;;;59.55;26.17;;;;;;;;;;5031001;28;20026;-74
2022/03/26 07:14:23;;;;;;;59.40;26.50;;;;;;;;;;5047499;28;20025;-74
2022/03/26 07:16:49;;;;;;;68.82;28.00;;;;;;;;;;5051071;28;20098;-74
2022/03/26 07:19:15;;;;;;;64.72;27.15;;;;;;;;;;5032674;28;20018;-74
2022/03/26 07:21:41;;;;;;;62.97;27.88;;;;;;;;;;5050988;28;20013;-74
2022/03/26 07:24:07;;;;;;;67.57;27.90;;;;;;;;;;5050982;28;20051;-74
2022/03/26 07:26:33;;;;;;;71.95;29.45;;;;;;;;;;5050835;28;20468;-74
2022/03/26 07:28:59;;;;;;;66.65;30.35;;;;;;;;;;5054416;28;20107;-74
2022/03/26 07:31:25;;;;;;;68.78;29.63;;;;;;;;;;5054422;28;20016;-74
2022/03/26 07:33:52;;;;;;;68.78;30.00;;;;;;;;;;5036391;28;20025;-74
2022/03/26 07:36:18;;;;;;;68.13;27.80;;;;;;;;;;5054311;28;20029;-74
2022/03/26 07:38:44;;;;;;;62.72;29.38;;;;;;;;;;5054380;28;20493;-74
2022/03/26 07:41:10;;;;;;;69.05;29.60;;;;;;;;;;5044981;28;20045;-74
2022/03/26 07:43:36;;;;;;;68.03;30.38;;;;;;;;;;5034212;28;20074;-74
2022/03/26 07:46:02;;;;;;;61.05;28.65;;;;;;;;;;5034250;28;20079;-74
2022/03/26 07:48:28;;;;;;;63.42;29.00;;;;;;;;;;5034179;28;20041;-74
2022/03/26 07:50:54;;;;;;;63.25;30.20;;;;;;;;;;5034026;28;20021;-74
2022/03/26 07:53:22;;;;;;;64.03;28.95;;;;;;;;;;5034111;28;20045;-74
2022/03/26 07:55:48;;;;;;;60.60;27.35;;;;;;;;;;5033813;28;20044;-74
2022/03/26 07:58:14;;;;;;;62.13;28.38;;;;;;;;;;5034104;28;20057;-74
2022/03/26 08:00:40;;;;;;;63.70;29.08;;;;;;;;;;5033961;28;20033;-74
2022/03/26 08:03:06;;;;;;;67.90;29.95;;;;;;;;;;5033846;28;20040;-74
2022/03/26 08:05:33;;;;;;;66.10;29.13;;;;;;;;;;5033926;28;20029;-74
2022/03/26 08:07:58;;;;;;;61.10;29.35;;;;;;;;;;5033759;28;20510;-74
2022/03/26 08:10:25;;;;;;;63.70;30.05;;;;;;;;;;5033703;28;20030;-74
2022/03/26 08:12:51;;;;;;;62.22;28.70;;;;;;;;;;5037376;28;20021;-74
2022/03/26 08:15:17;;;;;;;65.03;29.20;;;;;;;;;;5053552;28;20730;-74
2022/03/26 08:17:43;;;;;;;73.18;32.28;;;;;;;;;;5053607;28;20112;-74
2022/03/26 08:20:09;;;;;;;61.15;29.70;;;;;;;;;;5053441;28;20029;-74
2022/03/26 08:22:35;;;;;;;63.47;28.63;;;;;;;;;;5053462;28;20029;-74
2022/03/26 08:25:01;;;;;;;60.45;26.48;;;;;;;;;;5053193;28;20028;-74
2022/03/26 08:27:28;;;;;;;60.53;28.63;;;;;;;;;;5053255;28;20025;-74
2022/03/26 08:29:54;;;;;;;57.55;24.05;;;;;;;;;;5053287;28;20021;-74
2022/03/26 08:32:20;;;;;;;51.90;24.45;;;;;;;;;;5053337;28;20021;-74
2022/03/26 08:34:46;;;;;;;51.83;23.38;;;;;;;;;;5053078;28;20087;-74
2022/03/26 08:37:12;;;;;;;51.25;22.23;;;;;;;;;;5053259;28;20779;-74
2022/03/26 08:39:38;;;;;;;44.05;20.20;;;;;;;;;;5052589;28;20032;-74
2022/03/26 08:42:05;;;;;;;51.83;23.60;;;;;;;;;;5052822;28;20029;-74
2022/03/26 08:44:31;;;;;;;57.22;24.60;;;;;;;;;;5052909;28;20031;-74
2022/03/26 08:47:02;;;;;;;47.50;22.77;;;;;;;;;;5053081;28;20044;-74
2022/03/26 08:49:28;;;;;;;50.35;21.88;;;;;;;;;;5052893;28;20100;-74
2022/03/26 08:51:55;;;;;;;40.22;20.40;;;;;;;;;;5052916;28;20013;-74
2022/03/26 08:54:21;;;;;;;38.92;20.40;;;;;;;;;;5052851;28;20107;-74
2022/03/26 08:56:47;;;;;;;43.58;22.10;;;;;;;;;;5052669;28;20491;-74
2022/03/26 08:59:13;;;;;;;42.42;20.92;;;;;;;;;;5034783;28;20387;-74
2022/03/26 09:01:39;;;;;;;47.40;22.02;;;;;;;;;;5052744;28;20025;-74
2022/03/26 09:04:06;;;;;;;51.15;23.52;;;;;;;;;;5052555;28;20036;-74
2022/03/26 09:06:32;;;;;;;54.70;22.83;;;;;;;;;;5052467;28;20067;-74
2022/03/26 09:08:59;;;;;;;41.80;22.40;;;;;;;;;;5052512;28;20079;-74
2022/03/26 09:11:25;;;;;;;47.38;21.83;;;;;;;;;;5052519;28;20039;-74
2022/03/26 09:13:51;;;;;;;42.97;21.50;;;;;;;;;;5052361;28;20037;-74
2022/03/26 09:16:17;;;;;;;53.85;23.20;;;;;;;;;;5052375;28;20025;-74
2022/03/26 09:18:43;;;;;;;45.20;22.13;;;;;;;;;;5034638;28;20107;-74
2022/03/26 09:21:11;;;;;;;44.38;21.90;;;;;;;;;;5052150;28;20112;-74
2022/03/26 09:23:37;;;;;;;49.70;22.77;;;;;;;;;;5052322;28;20400;-74
2022/03/26 09:26:04;;;;;;;39.53;20.23;;;;;;;;;;5052265;28;20041;-75
2022/03/26 09:28:30;;;;;;;48.97;22.13;;;;;;;;;;5034738;28;20074;-76
2022/03/26 09:30:56;;;;;;;50.55;23.67;;;;;;;;;;5052466;28;20078;-75
2022/03/26 09:33:22;;;;;;;46.25;21.73;;;;;;;;;;5034362;28;20313;-76
2022/03/26 09:35:48;;;;;;;47.33;22.52;;;;;;;;;;5052350;28;20103;-75
2022/03/26 09:38:14;;;;;;;41.70;21.23;;;;;;;;;;5052360;28;20056;-76
2022/03/26 09:40:43;;;;;;;42.55;21.30;;;;;;;;;;5038888;28;20380;-76
2022/03/26 09:43:09;;;;;;;46.10;20.08;;;;;;;;;;5050655;28;20044;-76
2022/03/26 09:45:35;;;;;;;39.33;17.05;;;;;;;;;;5052102;28;20478;-76
2022/03/26 09:48:01;;;;;;;41.85;18.33;;;;;;;;;;5051965;28;20098;-76
2022/03/26 09:50:28;;;;;;;25.40;13.50;;;;;;;;;;5049848;28;20108;-75
2022/03/26 09:52:56;;;;;;;27.00;11.43;;;;;;;;;;5051466;28;20060;-76
2022/03/26 09:55:23;;;;;;;21.55;10.68;;;;;;;;;;5051666;28;20082;-76
2022/03/26 09:57:49;;;;;;;24.20;10.38;;;;;;;;;;5050308;28;20075;-76
2022/03/26 10:00:16;;;;;;;18.95;9.57;;;;;;;;;;5051649;28;20029;-76
2022/03/26 10:02:42;;;;;;;18.08;9.10;;;;;;;;;;5051499;28;20021;-76
2022/03/26 10:05:08;;;;;;;13.93;7.53;;;;;;;;;;5051532;28;20467;-76
2022/03/26 10:07:34;;;;;;;17.60;7.95;;;;;;;;;;5051446;28;20065;-76
2022/03/26 10:10:03;;;;;;;14.40;7.03;;;;;;;;;;5051442;28;20355;-76
2022/03/26 10:12:29;;;;;;;18.42;7.22;;;;;;;;;;5049887;28;20466;-76
2022/03/26 10:14:59;;;;;;;19.33;9.35;;;;;;;;;;5051362;28;20029;-76
2022/03/26 10:17:29;;;;;;;19.05;9.27;;;;;;;;;;5051321;28;20383;-75
2022/03/26 10:19:55;;;;;;;21.98;10.60;;;;;;;;;;5051296;28;20187;-76
2022/03/26 10:22:23;;;;;;;29.20;10.32;;;;;;;;;;5051362;28;20032;-75
2022/03/26 10:24:49;;;;;;;21.25;10.63;;;;;;;;;;5051536;28;20025;-76
2022/03/26 10:27:16;;;;;;;28.02;11.63;;;;;;;;;;5051154;28;20080;-76
2022/03/26 10:29:49;;;;;;;27.92;12.73;;;;;;;;;;5051259;28;20131;-76
2022/03/26 10:32:41;;;;;;;30.92;13.95;;;;;;;;;;5051466;28;20229;-76
2022/03/26 10:35:09;;;;;;;35.38;13.80;;;;;;;;;;5051349;28;20028;-75
2022/03/26 10:37:48;;;;;;;36.25;15.55;;;;;;;;;;5051236;28;20032;-76
2022/03/26 10:40:21;;;;;;;36.25;14.65;;;;;;;;;;5053729;28;20074;-75
2022/03/26 10:42:57;;;;;;;34.83;16.80;;;;;;;;;;5071087;28;20033;-75
2022/03/26 10:45:24;;;;;;;37.42;17.15;;;;;;;;;;5071125;28;20108;-75
2022/03/26 10:47:53;;;;;;;36.40;14.80;;;;;;;;;;5071309;28;20070;-75
2022/03/26 10:50:19;;;;;;;36.03;16.70;;;;;;;;;;5071339;28;20025;-75
2022/03/26 10:52:45;;;;;;;31.75;15.52;;;;;;;;;;5071248;28;20024;-75
2022/03/26 10:55:18;;;;;;;39.95;17.02;;;;;;;;;;5053115;28;20094;-76
2022/03/26 10:57:48;;;;;;;41.38;17.27;;;;;;;;;;5071102;28;20455;-76
2022/03/26 11:00:15;;;;;;;32.10;15.38;;;;;;;;;;5071111;28;20095;-75
2022/03/26 11:02:41;;;;;;;34.97;15.48;;;;;;;;;;5074491;28;20052;-75
2022/03/26 11:05:07;;;;;;;30.95;15.57;;;;;;;;;;5074951;28;20453;-75
2022/03/26 11:07:35;;;;;;;32.50;15.98;;;;;;;;;;5074924;28;20044;-76
2022/03/26 11:10:04;;;;;;;35.60;16.63;;;;;;;;;;5075025;28;20101;-75
2022/03/26 11:12:30;;;;;;;34.78;15.38;;;;;;;;;;5074450;28;20170;-75
2022/03/26 11:14:57;;;;;;;36.25;16.25;;;;;;;;;;5074689;28;20113;-76
2022/03/26 11:17:35;;;;;;;38.13;16.08;;;;;;;;;;5074646;28;20036;-75
2022/03/26 11:20:28;;;;;;;35.47;16.80;;;;;;;;;;5074546;28;20346;-75
2022/03/26 11:23:14;;;;;;;35.53;16.10;;;;;;;;;;5074537;28;20025;-76
2022/03/26 11:26:03;;;;;;;37.42;14.98;;;;;;;;;;5074413;28;20037;-76
2022/03/26 11:28:39;;;;;;;28.52;12.88;;;;;;;;;;4973327;28;20125;-75
2022/03/26 11:31:05;;;;;;;27.48;13.48;;;;;;;;;;4973288;28;20519;-75
2022/03/26 11:33:35;;;;;;;25.88;13.07;;;;;;;;;;4973465;28;20054;-75
2022/03/26 11:36:02;;;;;;;25.20;11.20;;;;;;;;;;4973277;28;20029;-76
2022/03/26 11:38:29;;;;;;;35.05;13.70;;;;;;;;;;4973464;28;20086;-75
2022/03/26 11:41:01;;;;;;;30.50;13.23;;;;;;;;;;4966432;28;20086;-75
2022/03/26 11:43:48;;;;;;;28.38;13.00;;;;;;;;;;4953844;29;20062;-75
2022/03/26 11:52:00;;;;;;;24.17;11.60;;;;;;;;;;4954064;29;20130;-75
2022/03/26 11:54:26;;;;;;;26.08;11.60;;;;;;;;;;4953715;29;20032;-75
2022/03/26 11:57:07;;;;;;;24.05;12.23;;;;;;;;;;4953494;29;20042;-75
2022/03/26 11:59:36;;;;;;;26.87;13.00;;;;;;;;;;4953637;29;20040;-75
2022/03/26 12:02:16;;;;;;;25.70;12.77;;;;;;;;;;4953589;29;20489;-75
2022/03/26 12:04:54;;;;;;;24.55;11.85;;;;;;;;;;4971345;28;20106;-75
2022/03/26 12:07:21;;;;;;;23.17;11.60;;;;;;;;;;5053727;28;20025;-75
2022/03/26 12:09:52;;;;;;;24.98;11.48;;;;;;;;;;5053750;28;20029;-75
2022/03/26 12:12:19;;;;;;;29.20;12.57;;;;;;;;;;5053386;28;20017;-75
2022/03/26 12:15:07;;;;;;;25.25;11.45;;;;;;;;;;5072718;28;20107;-75
2022/03/26 12:17:46;;;;;;;25.25;11.55;;;;;;;;;;5073645;28;20100;-75
2022/03/26 12:20:33;;;;;;;27.77;9.85;;;;;;;;;;5073524;28;20039;-75
2022/03/26 12:23:12;;;;;;;21.85;10.65;;;;;;;;;;5073368;28;20411;-75
2022/03/26 12:25:46;;;;;;;23.83;11.82;;;;;;;;;;5073098;28;20073;-75
2022/03/26 12:28:12;;;;;;;27.58;11.70;;;;;;;;;;5073511;28;20059;-75
2022/03/26 12:30:43;;;;;;;26.58;11.60;;;;;;;;;;5073349;28;20078;-75
2022/03/26 12:33:09;;;;;;;34.07;13.20;;;;;;;;;;5073404;28;20433;-75
2022/03/26 12:35:35;;;;;;;28.73;11.35;;;;;;;;;;5073399;28;20107;-75
2022/03/26 12:38:05;;;;;;;27.73;11.95;;;;;;;;;;5073187;28;20403;-75
2022/03/26 12:40:32;;;;;;;23.63;10.95;;;;;;;;;;5069475;28;20065;-75
2022/03/26 12:42:59;;;;;;;23.73;11.43;;;;;;;;;;5035062;28;20032;-75
2022/03/26 12:45:25;;;;;;;24.25;12.45;;;;;;;;;;5053060;28;20424;-75
2022/03/26 12:47:51;;;;;;;32.30;12.07;;;;;;;;;;5052971;28;20049;-75
2022/03/26 12:50:18;;;;;;;26.35;11.20;;;;;;;;;;5053023;28;20491;-74
2022/03/26 12:52:44;;;;;;;29.20;12.90;;;;;;;;;;5052917;28;20036;-75
2022/03/26 12:55:11;;;;;;;29.08;12.40;;;;;;;;;;5052871;28;20082;-75
2022/03/26 13:00:27;;;;;;;25.73;12.23;;;;;;;;;;5053059;28;20532;-75
2022/03/26 13:03:19;;;;;;;21.77;10.60;;;;;;;;;;5052724;28;20029;-75
2022/03/26 13:05:45;;;;;;;36.40;11.38;;;;;;;;;;5049694;28;20075;-75
2022/03/26 13:08:12;;;;;;;27.17;10.40;;;;;;;;;;5052653;28;20033;-75
2022/03/26 13:10:41;;;;;;;20.45;9.23;;;;;;;;;;5052554;28;20632;-75
2022/03/26 13:13:08;;;;;;;18.92;9.30;;;;;;;;;;5058458;28;20028;-75
2022/03/26 13:15:34;;;;;;;19.75;9.25;;;;;;;;;;5072599;28;20040;-75
2022/03/26 13:18:04;;;;;;;24.60;9.05;;;;;;;;;;5072506;28;20036;-75
2022/03/26 13:20:32;;;;;;;20.90;10.40;;;;;;;;;;5072352;28;20024;-75
2022/03/26 13:23:00;;;;;;;23.48;11.60;;;;;;;;;;5054070;28;20559;-75
2022/03/26 13:25:31;;;;;;;23.25;10.15;;;;;;;;;;5071248;28;20024;-75
2022/03/26 13:28:13;;;;;;;20.52;9.88;;;;;;;;;;5072166;28;20021;-75
2022/03/26 13:30:39;;;;;;;19.23;8.68;;;;;;;;;;5072169;28;20035;-76
2022/03/26 13:33:05;;;;;;;25.00;10.20;;;;;;;;;;5072139;28;20029;-75
2022/03/26 13:35:33;;;;;;;25.02;9.20;;;;;;;;;;5072128;28;20497;-75
2022/03/26 13:38:09;;;;;;;24.42;11.38;;;;;;;;;;5072072;28;20031;-75
2022/03/26 13:40:36;;;;;;;22.85;12.05;;;;;;;;;;5067760;28;20454;-75
2022/03/26 13:43:02;;;;;;;21.25;10.88;;;;;;;;;;5051946;28;20033;-75
2022/03/26 13:45:28;;;;;;;18.85;9.25;;;;;;;;;;5051989;28;20593;-75
2022/03/26 13:47:56;;;;;;;19.50;9.30;;;;;;;;;;5052095;28;20028;-76
2022/03/26 13:50:22;;;;;;;16.08;8.60;;;;;;;;;;5051872;28;20069;-75
2022/03/26 13:52:51;;;;;;;15.38;8.63;;;;;;;;;;5051725;28;20025;-75
2022/03/26 13:55:20;;;;;;;15.50;8.90;;;;;;;;;;5051801;28;20082;-76
2022/03/26 13:57:50;;;;;;;21.10;10.70;;;;;;;;;;5051685;28;20051;-75
2022/03/26 14:00:16;;;;;;;14.80;8.48;;;;;;;;;;5051696;28;20025;-75
2022/03/26 14:02:42;;;;;;;16.13;8.32;;;;;;;;;;5051649;28;20515;-75
2022/03/26 14:05:17;;;;;;;24.00;9.13;;;;;;;;;;5051594;28;20464;-75
2022/03/26 14:07:44;;;;;;;19.05;9.13;;;;;;;;;;5051543;28;20071;-75
2022/03/26 14:10:11;;;;;;;16.05;8.85;;;;;;;;;;5051517;28;20761;-75
2022/03/26 14:12:37;;;;;;;16.58;8.85;;;;;;;;;;5053279;28;20364;-76
2022/03/26 14:15:03;;;;;;;16.50;9.55;;;;;;;;;;5071540;28;20032;-76
2022/03/26 14:17:29;;;;;;;17.38;10.45;;;;;;;;;;5071696;28;20033;-75
2022/03/26 14:19:56;;;;;;;24.75;13.88;;;;;;;;;;5071516;28;20027;-75
2022/03/26 14:22:22;;;;;;;29.90;14.95;;;;;;;;;;5071426;28;20503;-75
2022/03/26 14:24:48;;;;;;;34.35;14.68;;;;;;;;;;5071743;28;20327;-75
2022/03/26 14:27:14;;;;;;;31.58;17.15;;;;;;;;;;5071403;28;20150;-74
2022/03/26 14:29:40;;;;;;;31.38;16.85;;;;;;;;;;5071422;28;20032;-75
2022/03/26 14:32:06;;;;;;;32.67;18.30;;;;;;;;;;5071437;28;20085;-74